Time;durP1;ratioP1;P1;durP2;ratioP2;P2;SDS_P1;SDS_P2;PMS_P1;PMS_P2;Temp;Humidity;BMP_temperature;BMP_pressure;BME280_temperature;BME280_humidity;BME280_pressure;Samples;Min_cycle;Max_cycle;Signal;HPM_P1;HPM_P2
2023/06/13 00:01:22;;;;;;;9.40;4.07;;;20.40;49.90;;;;;;5073751;28;20033;-71
2023/06/13 00:03:49;;;;;;;8.82;3.50;;;20.30;49.70;;;;;;5073447;28;20041;-71
2023/06/13 00:06:17;;;;;;;9.57;4.10;;;20.30;49.70;;;;;;5057742;28;20036;-71
2023/06/13 00:08:43;;;;;;;9.60;4.13;;;20.30;49.90;;;;;;5073730;28;20051;-71
2023/06/13 00:11:09;;;;;;;9.43;4.68;;;20.30;49.80;;;;;;5073866;28;20087;-71
2023/06/13 00:13:35;;;;;;;7.50;4.00;;;20.30;49.90;;;;;;5073710;28;20090;-71
2023/06/13 00:16:02;;;;;;;7.63;4.40;;;20.30;49.90;;;;;;5073758;28;20093;-71
2023/06/13 00:18:29;;;;;;;10.57;4.45;;;20.20;50.10;;;;;;5056705;28;20089;-71
2023/06/13 00:20:55;;;;;;;7.88;4.35;;;20.20;50.00;;;;;;5057000;28;20110;-71
2023/06/13 00:23:21;;;;;;;8.80;4.18;;;20.20;50.00;;;;;;5073305;28;20462;-71
2023/06/13 00:25:47;;;;;;;10.77;4.20;;;20.20;50.00;;;;;;5056609;28;20082;-71
2023/06/13 00:28:13;;;;;;;5.88;4.15;;;20.20;50.00;;;;;;5073134;28;20044;-71
2023/06/13 00:30:39;;;;;;;6.60;4.32;;;20.20;50.30;;;;;;5073160;28;20049;-71
2023/06/13 00:33:05;;;;;;;9.30;3.92;;;20.20;50.40;;;;;;5056420;28;20033;-71
2023/06/13 00:35:32;;;;;;;5.65;4.07;;;20.20;50.30;;;;;;5073063;28;20094;-71
2023/06/13 00:37:57;;;;;;;7.32;4.50;;;20.20;50.50;;;;;;5073304;28;20044;-71
2023/06/13 00:40:24;;;;;;;6.93;4.00;;;20.10;50.50;;;;;;5073261;28;20049;-71
2023/06/13 00:42:53;;;;;;;8.27;4.32;;;20.10;50.40;;;;;;5072827;28;20049;-71
2023/06/13 00:45:23;;;;;;;8.77;3.80;;;20.10;50.50;;;;;;5074407;28;20036;-71
2023/06/13 00:47:55;;;;;;;7.95;3.83;;;20.00;50.70;;;;;;5073065;28;20515;-71
2023/06/13 00:50:27;;;;;;;12.27;3.90;;;20.00;51.00;;;;;;5072713;28;20117;-71
2023/06/13 00:52:55;;;;;;;9.23;4.20;;;19.90;51.00;;;;;;5072938;28;20330;-71
2023/06/13 00:55:22;;;;;;;10.35;4.35;;;19.90;51.20;;;;;;5072902;28;20040;-71
2023/06/13 00:57:51;;;;;;;7.05;4.07;;;19.80;51.10;;;;;;5072638;28;20040;-71
2023/06/13 01:00:18;;;;;;;7.18;4.20;;;19.90;51.50;;;;;;5055930;28;20123;-71
2023/06/13 01:02:45;;;;;;;10.45;4.03;;;19.90;51.40;;;;;;5056046;28;20120;-71
2023/06/13 01:05:11;;;;;;;8.13;3.85;;;19.80;51.40;;;;;;5055465;28;20129;-71
2023/06/13 01:07:41;;;;;;;7.05;4.18;;;19.80;51.60;;;;;;5072471;28;20386;-71
2023/06/13 01:10:09;;;;;;;8.88;3.88;;;19.80;51.50;;;;;;5072420;28;20047;-71
2023/06/13 01:12:45;;;;;;;8.73;3.67;;;19.70;51.60;;;;;;5072569;28;20040;-71
2023/06/13 01:15:16;;;;;;;6.85;4.13;;;19.70;51.70;;;;;;5055738;28;20072;-71
2023/06/13 01:17:57;;;;;;;7.72;3.95;;;19.70;51.80;;;;;;5072359;28;20047;-71
2023/06/13 01:20:26;;;;;;;7.45;4.55;;;19.60;51.90;;;;;;5055681;28;20075;-71
2023/06/13 01:23:30;;;;;;;7.88;4.63;;;19.60;51.90;;;;;;5056033;28;20080;-71
2023/06/13 01:26:15;;;;;;;7.95;4.25;;;19.60;52.10;;;;;;5072220;28;20162;-71
2023/06/13 01:28:43;;;;;;;11.20;4.03;;;19.60;52.20;;;;;;5072150;28;20037;-71
2023/06/13 01:31:12;;;;;;;9.45;4.25;;;19.50;52.20;;;;;;5072426;28;20066;-71
2023/06/13 01:33:38;;;;;;;6.57;4.78;;;19.50;52.40;;;;;;5055596;28;20040;-71
2023/06/13 01:36:05;;;;;;;5.40;3.78;;;19.40;52.40;;;;;;5072092;28;20036;-71
2023/06/13 01:38:31;;;;;;;13.52;4.13;;;19.40;53.10;;;;;;5071993;28;20041;-71
2023/06/13 01:40:58;;;;;;;8.68;4.22;;;19.40;52.40;;;;;;5071999;28;20076;-71
2023/06/13 01:43:23;;;;;;;6.05;4.13;;;19.30;52.50;;;;;;5055172;28;20051;-71
2023/06/13 01:45:57;;;;;;;9.93;4.05;;;19.30;52.70;;;;;;5071941;28;20044;-71
2023/06/13 01:48:36;;;;;;;7.45;4.10;;;19.30;52.70;;;;;;5071845;28;20053;-71
2023/06/13 01:51:31;;;;;;;7.97;3.97;;;19.30;52.70;;;;;;5072178;28;20113;-71
2023/06/13 01:54:03;;;;;;;8.85;4.28;;;19.30;52.60;;;;;;5071898;28;20033;-71
2023/06/13 01:56:32;;;;;;;7.70;4.72;;;19.20;52.90;;;;;;5071851;28;20040;-71
2023/06/13 01:59:00;;;;;;;8.80;4.50;;;19.10;53.00;;;;;;5072066;28;20036;-72
2023/06/13 02:01:27;;;;;;;12.60;4.43;;;19.10;53.00;;;;;;5071692;28;20044;-71
2023/06/13 02:03:53;;;;;;;6.28;4.05;;;19.10;53.00;;;;;;5054911;28;20094;-71
2023/06/13 02:06:19;;;;;;;6.60;4.13;;;19.10;53.10;;;;;;5072014;28;20048;-71
2023/06/13 02:08:45;;;;;;;6.00;4.40;;;19.10;53.20;;;;;;5071605;28;20428;-71
2023/06/13 02:11:11;;;;;;;7.25;4.03;;;19.10;53.30;;;;;;5055256;28;20048;-71
2023/06/13 02:13:37;;;;;;;8.55;4.32;;;19.00;53.40;;;;;;5072331;28;20040;-71
2023/06/13 02:16:03;;;;;;;12.15;4.63;;;19.00;53.40;;;;;;5055509;28;20037;-71
2023/06/13 02:18:30;;;;;;;7.07;3.95;;;18.90;53.50;;;;;;5075732;28;20085;-71
2023/06/13 02:20:56;;;;;;;5.88;4.03;;;18.90;53.60;;;;;;5058967;28;20044;-71
2023/06/13 02:23:23;;;;;;;8.27;4.15;;;18.90;53.80;;;;;;5075528;28;20055;-71
2023/06/13 02:25:51;;;;;;;8.93;4.30;;;18.90;54.00;;;;;;5075629;28;20045;-71
2023/06/13 02:28:17;;;;;;;5.90;4.35;;;18.80;54.00;;;;;;5058732;28;20127;-71
2023/06/13 02:30:44;;;;;;;6.10;4.07;;;18.80;54.20;;;;;;5075464;28;20049;-71
2023/06/13 02:33:10;;;;;;;8.50;4.32;;;18.80;54.30;;;;;;5058746;28;20040;-71
2023/06/13 02:35:37;;;;;;;7.13;3.80;;;18.80;54.60;;;;;;5075398;28;20037;-71
2023/06/13 02:38:06;;;;;;;8.65;4.18;;;18.70;54.60;;;;;;5075599;28;20058;-71
2023/06/13 02:40:33;;;;;;;7.30;4.07;;;18.70;54.70;;;;;;5075249;28;20452;-71
2023/06/13 02:43:00;;;;;;;8.32;4.05;;;18.60;54.90;;;;;;5075141;28;20066;-71
2023/06/13 02:45:25;;;;;;;9.88;4.80;;;18.60;55.00;;;;;;5075248;28;20098;-71
2023/06/13 02:47:52;;;;;;;9.38;4.57;;;18.60;55.30;;;;;;5075386;28;20071;-71
2023/06/13 02:50:17;;;;;;;8.85;4.45;;;18.50;55.20;;;;;;5074984;28;20028;-71
2023/06/13 02:52:43;;;;;;;6.35;4.03;;;18.50;55.50;;;;;;5058323;28;20047;-71
2023/06/13 02:55:10;;;;;;;10.68;4.50;;;18.40;55.50;;;;;;5081152;22;20408;-73
2023/06/13 02:57:39;;;;;;;8.18;4.40;;;18.40;55.70;;;;;;5035403;28;20119;-74
2023/06/13 03:00:07;;;;;;;6.43;4.10;;;18.30;56.10;;;;;;5035055;28;20052;-74
2023/06/13 03:02:36;;;;;;;9.30;4.15;;;18.30;56.30;;;;;;5018493;28;20512;-74
2023/06/13 03:05:03;;;;;;;8.85;4.57;;;18.20;56.40;;;;;;5034908;28;20077;-74
2023/06/13 03:07:31;;;;;;;8.05;4.30;;;18.10;56.50;;;;;;5034995;28;20045;-74
2023/06/13 03:10:00;;;;;;;8.63;4.18;;;18.10;56.90;;;;;;5034798;28;20046;-74
2023/06/13 03:12:26;;;;;;;9.80;4.40;;;18.00;57.10;;;;;;5034809;28;20069;-74
2023/06/13 03:14:52;;;;;;;8.57;4.03;;;18.00;57.30;;;;;;5034731;28;20118;-74
2023/06/13 03:17:17;;;;;;;8.85;4.38;;;17.90;57.30;;;;;;5034735;28;20096;-74
2023/06/13 03:19:43;;;;;;;9.30;4.10;;;17.80;57.60;;;;;;5034668;28;20052;-74
2023/06/13 03:22:13;;;;;;;6.10;4.53;;;17.80;57.80;;;;;;5034589;28;20041;-74
2023/06/13 03:24:40;;;;;;;7.68;4.55;;;17.70;58.00;;;;;;5034567;28;20092;-74
2023/06/13 03:27:06;;;;;;;8.73;4.30;;;17.70;58.10;;;;;;5017548;28;20045;-74
2023/06/13 03:29:32;;;;;;;6.05;4.45;;;17.70;59.10;;;;;;5018121;28;20045;-74
2023/06/13 03:31:57;;;;;;;8.77;4.65;;;17.60;58.40;;;;;;5034460;28;20489;-74
2023/06/13 03:34:28;;;;;;;9.18;4.57;;;17.60;58.50;;;;;;5034637;28;20068;-74
2023/06/13 03:36:54;;;;;;;11.95;4.57;;;17.60;58.60;;;;;;5034686;28;20442;-74
2023/06/13 03:39:20;;;;;;;12.52;4.88;;;17.60;58.80;;;;;;5034350;28;20042;-75
2023/06/13 03:41:46;;;;;;;11.63;4.53;;;17.50;58.80;;;;;;5034260;28;20103;-74
2023/06/13 03:44:11;;;;;;;9.85;4.93;;;17.50;59.00;;;;;;5034160;28;20048;-74
2023/06/13 03:46:37;;;;;;;11.05;4.55;;;17.50;59.10;;;;;;5034419;28;20052;-74
2023/06/13 03:49:03;;;;;;;7.55;4.05;;;17.40;59.20;;;;;;5034139;28;20497;-74
2023/06/13 03:51:29;;;;;;;7.88;4.40;;;17.40;59.30;;;;;;5034366;28;20042;-74
2023/06/13 03:53:55;;;;;;;10.70;4.28;;;17.40;59.20;;;;;;5034101;28;20505;-74
2023/06/13 03:56:20;;;;;;;9.43;4.22;;;17.40;59.60;;;;;;5034156;28;20056;-74
2023/06/13 03:58:46;;;;;;;9.57;4.10;;;17.40;59.80;;;;;;5034265;28;20497;-74
2023/06/13 04:01:11;;;;;;;8.02;4.53;;;17.40;59.70;;;;;;5033945;28;20071;-74
2023/06/13 04:03:39;;;;;;;8.50;4.30;;;17.40;59.80;;;;;;5034158;28;20042;-74
2023/06/13 04:06:06;;;;;;;7.63;4.03;;;17.30;59.90;;;;;;5033759;28;20041;-74
2023/06/13 04:08:32;;;;;;;7.90;4.30;;;17.40;60.00;;;;;;5033725;28;20041;-74
2023/06/13 04:10:57;;;;;;;8.90;4.10;;;17.40;60.10;;;;;;5017529;28;20040;-74
2023/06/13 04:13:23;;;;;;;6.35;4.15;;;17.40;60.00;;;;;;5033751;28;20045;-74
2023/06/13 04:15:48;;;;;;;8.18;4.05;;;17.30;60.20;;;;;;5033620;28;20048;-74
2023/06/13 04:18:17;;;;;;;7.60;4.38;;;17.30;60.30;;;;;;5033897;28;20041;-74
2023/06/13 04:20:43;;;;;;;7.07;3.95;;;17.40;60.30;;;;;;5033806;28;20128;-74
2023/06/13 04:23:08;;;;;;;5.97;3.70;;;17.40;60.30;;;;;;5033502;28;20038;-74
2023/06/13 04:25:35;;;;;;;12.00;4.10;;;17.40;60.40;;;;;;5033432;28;20080;-74
2023/06/13 04:28:02;;;;;;;7.50;4.13;;;17.40;60.40;;;;;;5033420;28;20555;-74
2023/06/13 04:30:29;;;;;;;13.73;4.63;;;17.40;60.10;;;;;;5033298;28;20041;-74
2023/06/13 04:32:57;;;;;;;6.32;3.70;;;17.40;60.30;;;;;;5033331;28;20083;-74
2023/06/13 04:35:23;;;;;;;12.13;3.83;;;17.40;60.40;;;;;;5033460;28;20065;-74
2023/06/13 04:37:51;;;;;;;7.47;4.03;;;17.50;60.40;;;;;;5033204;28;20034;-74
2023/06/13 04:40:18;;;;;;;8.70;3.80;;;17.50;60.20;;;;;;5016069;28;20120;-74
2023/06/13 04:42:51;;;;;;;8.90;3.63;;;17.50;60.20;;;;;;5033392;28;20076;-74
2023/06/13 04:45:20;;;;;;;9.77;3.92;;;17.60;60.40;;;;;;5033339;28;20064;-74
2023/06/13 04:47:47;;;;;;;7.10;3.60;;;17.60;60.20;;;;;;5016598;28;20124;-74
2023/06/13 04:50:14;;;;;;;8.82;3.67;;;17.50;60.40;;;;;;5032974;28;20042;-74
2023/06/13 04:52:41;;;;;;;8.95;3.90;;;17.60;60.60;;;;;;5032989;28;20068;-74
2023/06/13 04:55:07;;;;;;;8.75;4.15;;;17.60;60.60;;;;;;5032712;28;20045;-74
2023/06/13 04:57:33;;;;;;;6.78;3.72;;;17.70;60.60;;;;;;5032857;28;20079;-74
2023/06/13 04:59:59;;;;;;;7.85;3.78;;;17.70;60.40;;;;;;5033105;28;20042;-74
2023/06/13 05:02:25;;;;;;;5.80;3.88;;;17.80;60.50;;;;;;5032820;28;20045;-74
2023/06/13 05:04:57;;;;;;;6.32;3.90;;;17.80;60.30;;;;;;5016247;28;20033;-74
2023/06/13 05:07:24;;;;;;;9.57;4.43;;;17.80;60.50;;;;;;5016489;28;20489;-74
2023/06/13 05:09:50;;;;;;;8.40;3.78;;;17.80;60.50;;;;;;5016136;28;20037;-74
2023/06/13 05:12:16;;;;;;;6.55;4.07;;;17.80;60.20;;;;;;5032592;28;20083;-74
2023/06/13 05:14:42;;;;;;;10.10;4.15;;;17.90;60.50;;;;;;5032722;28;20124;-74
2023/06/13 05:17:09;;;;;;;9.23;3.80;;;17.90;60.50;;;;;;5032501;28;20041;-74
2023/06/13 05:19:35;;;;;;;11.00;4.10;;;17.90;60.50;;;;;;5016014;28;20500;-74
2023/06/13 05:22:08;;;;;;;11.27;4.22;;;18.00;60.30;;;;;;5032414;28;20045;-74
2023/06/13 05:24:34;;;;;;;5.90;4.00;;;18.10;60.30;;;;;;5032313;28;20048;-74
2023/06/13 05:27:00;;;;;;;5.78;4.00;;;18.00;60.20;;;;;;5032352;28;20075;-74
2023/06/13 05:29:26;;;;;;;11.25;4.25;;;18.10;60.20;;;;;;5032339;28;20037;-74
2023/06/13 05:31:53;;;;;;;7.32;3.80;;;18.10;60.10;;;;;;5032546;28;20072;-74
2023/06/13 05:34:19;;;;;;;8.38;3.33;;;18.20;60.00;;;;;;5032159;28;20052;-74
2023/06/13 05:36:45;;;;;;;5.60;4.10;;;18.30;59.90;;;;;;5032509;28;20493;-74
2023/06/13 05:39:12;;;;;;;9.80;4.10;;;18.30;59.80;;;;;;5032166;28;20045;-74
2023/06/13 05:41:39;;;;;;;9.05;3.55;;;18.30;59.70;;;;;;5015674;28;20041;-74
2023/06/13 05:44:05;;;;;;;9.40;3.85;;;18.40;59.50;;;;;;5032289;28;20063;-74
2023/06/13 05:46:31;;;;;;;10.05;3.83;;;18.40;59.10;;;;;;5032055;28;20037;-74
2023/06/13 05:48:57;;;;;;;7.15;3.83;;;18.50;59.20;;;;;;5032165;28;20068;-74
2023/06/13 05:51:23;;;;;;;8.18;3.55;;;18.60;58.80;;;;;;5031724;28;20045;-74
2023/06/13 05:53:48;;;;;;;8.15;3.75;;;18.60;58.60;;;;;;5031891;28;20048;-74
2023/06/13 05:56:14;;;;;;;6.68;3.50;;;18.70;58.20;;;;;;5031841;28;20029;-74
2023/06/13 05:58:40;;;;;;;10.48;4.28;;;18.80;58.30;;;;;;5031881;28;20099;-74
2023/06/13 06:01:06;;;;;;;7.45;3.50;;;18.80;58.30;;;;;;5031947;28;20060;-74
2023/06/13 06:03:33;;;;;;;9.70;3.15;;;18.80;58.10;;;;;;5031865;28;20164;-74
2023/06/13 06:05:59;;;;;;;8.88;3.60;;;18.90;58.10;;;;;;5032037;28;20095;-74
2023/06/13 06:08:25;;;;;;;7.88;4.03;;;19.00;58.00;;;;;;5015523;28;20448;-74
2023/06/13 06:10:51;;;;;;;8.10;4.07;;;19.00;57.80;;;;;;5031798;28;20034;-74
2023/06/13 06:13:16;;;;;;;8.00;3.83;;;19.10;57.60;;;;;;5015567;28;20079;-74
2023/06/13 06:15:42;;;;;;;6.07;3.95;;;19.10;57.60;;;;;;5031925;28;20413;-74
2023/06/13 06:18:08;;;;;;;6.65;3.67;;;19.20;57.50;;;;;;5015343;28;20549;-75
2023/06/13 06:20:34;;;;;;;8.35;4.05;;;19.20;57.40;;;;;;5015291;28;20056;-74
2023/06/13 06:22:59;;;;;;;5.72;3.67;;;19.30;56.90;;;;;;5031654;28;20037;-74
2023/06/13 06:25:25;;;;;;;7.90;4.05;;;19.40;56.90;;;;;;5031842;28;20045;-74
2023/06/13 06:27:51;;;;;;;9.30;3.78;;;19.40;56.80;;;;;;5031671;28;20555;-74
2023/06/13 06:30:16;;;;;;;9.43;4.05;;;19.50;56.80;;;;;;5031504;28;20068;-74
2023/06/13 06:32:42;;;;;;;5.97;3.95;;;19.60;56.70;;;;;;5031591;28;20034;-74
2023/06/13 06:35:09;;;;;;;7.68;4.28;;;19.60;56.50;;;;;;5031762;28;20116;-74
2023/06/13 06:37:35;;;;;;;8.25;4.03;;;19.70;56.40;;;;;;5031528;28;20516;-74
2023/06/13 06:40:01;;;;;;;7.05;3.95;;;19.70;56.40;;;;;;5031844;28;20050;-74
2023/06/13 06:42:27;;;;;;;7.63;4.30;;;19.70;56.00;;;;;;5031565;28;20046;-74
2023/06/13 06:44:52;;;;;;;13.50;4.38;;;19.80;55.80;;;;;;5031450;28;20064;-74
2023/06/13 06:47:18;;;;;;;8.55;4.03;;;19.90;55.70;;;;;;5031736;28;20041;-75
2023/06/13 06:49:45;;;;;;;7.32;3.60;;;19.90;55.40;;;;;;5031474;28;20485;-75
2023/06/13 06:52:10;;;;;;;6.70;4.05;;;20.00;55.30;;;;;;5031722;28;20073;-75
2023/06/13 06:54:36;;;;;;;7.15;3.70;;;20.10;55.30;;;;;;5031245;28;20523;-75
2023/06/13 06:57:02;;;;;;;8.07;3.85;;;20.10;55.20;;;;;;5031367;28;20045;-75
2023/06/13 06:59:29;;;;;;;7.10;3.53;;;20.20;55.00;;;;;;5031366;28;20128;-75
2023/06/13 07:01:55;;;;;;;7.38;3.42;;;20.30;54.40;;;;;;5031713;28;20041;-75
2023/06/13 07:04:22;;;;;;;8.20;3.50;;;20.40;53.70;;;;;;5034995;28;20037;-75
2023/06/13 07:06:47;;;;;;;6.32;3.17;;;20.50;53.30;;;;;;5034947;28;20039;-75
2023/06/13 07:09:13;;;;;;;6.50;3.28;;;20.60;53.00;;;;;;5034861;28;20128;-74
2023/06/13 07:11:39;;;;;;;9.93;3.08;;;20.70;52.80;;;;;;5034906;28;20033;-74
2023/06/13 07:14:04;;;;;;;9.50;3.00;;;20.70;52.50;;;;;;5034791;28;20033;-74
2023/06/13 07:16:30;;;;;;;6.78;2.70;;;20.80;52.10;;;;;;5018580;28;20080;-74
2023/06/13 07:18:56;;;;;;;6.35;2.95;;;20.90;51.80;;;;;;5034744;28;20041;-74
2023/06/13 07:21:21;;;;;;;8.93;3.10;;;21.10;51.80;;;;;;5034718;28;20060;-74
2023/06/13 07:23:47;;;;;;;8.52;3.00;;;21.20;51.90;;;;;;5018232;28;20076;-74
2023/06/13 07:26:14;;;;;;;8.05;3.15;;;21.40;51.70;;;;;;5034819;28;20048;-75
2023/06/13 07:28:39;;;;;;;8.13;3.20;;;21.50;51.60;;;;;;5034752;28;20490;-75
2023/06/13 07:31:05;;;;;;;6.68;2.75;;;21.60;51.60;;;;;;5034763;28;20097;-75
2023/06/13 07:33:31;;;;;;;4.50;2.55;;;21.70;50.60;;;;;;5018022;28;20493;-75
2023/06/13 07:35:57;;;;;;;8.77;2.65;;;21.80;50.40;;;;;;5034643;28;20041;-75
2023/06/13 07:38:24;;;;;;;5.55;2.78;;;21.90;50.80;;;;;;5017874;28;20480;-75
2023/06/13 07:40:49;;;;;;;4.30;2.60;;;22.10;51.10;;;;;;5034625;28;20044;-75
2023/06/13 07:43:15;;;;;;;6.45;2.58;;;22.20;51.10;;;;;;5034306;28;20412;-75
2023/06/13 07:45:41;;;;;;;5.28;2.67;;;22.40;50.50;;;;;;5034449;28;20082;-75
2023/06/13 07:48:06;;;;;;;5.38;3.22;;;22.50;50.70;;;;;;5034509;28;20497;-75
2023/06/13 07:50:34;;;;;;;6.28;3.05;;;22.70;50.00;;;;;;5034123;28;20493;-75
2023/06/13 07:52:59;;;;;;;7.88;2.38;;;22.80;50.00;;;;;;5034088;28;20044;-75
2023/06/13 07:55:26;;;;;;;8.07;2.70;;;22.90;49.90;;;;;;5033919;28;20045;-75
2023/06/13 07:57:51;;;;;;;7.07;2.63;;;23.00;50.40;;;;;;5034249;28;20064;-75
2023/06/13 08:00:17;;;;;;;5.97;2.80;;;23.20;50.20;;;;;;5017687;28;20497;-75
2023/06/13 08:02:46;;;;;;;4.97;2.55;;;23.30;49.50;;;;;;5034191;28;20074;-75
2023/06/13 08:05:13;;;;;;;7.60;2.42;;;23.40;49.20;;;;;;5033817;28;20159;-75
2023/06/13 08:07:39;;;;;;;10.98;2.67;;;23.60;48.80;;;;;;5017360;28;20037;-75
2023/06/13 08:10:06;;;;;;;4.97;2.50;;;23.70;48.70;;;;;;5033722;28;20041;-75
2023/06/13 08:12:31;;;;;;;7.28;2.47;;;23.80;48.50;;;;;;5033754;28;20045;-75
2023/06/13 08:14:57;;;;;;;5.32;2.95;;;23.90;48.40;;;;;;5017122;28;20034;-75
2023/06/13 08:17:24;;;;;;;5.05;2.65;;;24.00;47.60;;;;;;5033899;28;20103;-75
2023/06/13 08:19:50;;;;;;;6.63;2.22;;;24.10;47.30;;;;;;5033905;28;20080;-75
2023/06/13 08:22:17;;;;;;;4.93;2.47;;;24.20;46.20;;;;;;5033532;28;20409;-75
2023/06/13 08:24:42;;;;;;;11.23;2.50;;;24.30;45.90;;;;;;5016957;28;20033;-75
2023/06/13 08:27:10;;;;;;;4.32;2.58;;;24.40;45.30;;;;;;5033520;28;20045;-75
2023/06/13 08:29:35;;;;;;;5.43;2.15;;;24.50;45.00;;;;;;5033368;28;20094;-74
2023/06/13 08:32:01;;;;;;;8.45;2.53;;;24.60;45.10;;;;;;5033418;28;20045;-74
2023/06/13 08:34:27;;;;;;;7.50;2.25;;;24.70;44.00;;;;;;5016792;28;20083;-74
2023/06/13 08:36:53;;;;;;;6.45;2.53;;;24.80;44.10;;;;;;5033319;28;20041;-74
2023/06/13 08:39:19;;;;;;;6.53;2.25;;;24.90;43.30;;;;;;5033253;28;20037;-74
2023/06/13 08:41:45;;;;;;;5.60;2.67;;;25.00;43.10;;;;;;5033208;28;20045;-74
2023/06/13 08:44:11;;;;;;;4.15;2.10;;;25.10;42.60;;;;;;5033351;28;20052;-74
2023/06/13 08:46:37;;;;;;;5.95;2.42;;;25.20;41.90;;;;;;5033390;28;20453;-74
2023/06/13 08:49:03;;;;;;;5.53;2.30;;;25.30;41.70;;;;;;5033256;28;20124;-74
2023/06/13 08:51:31;;;;;;;4.22;2.13;;;25.40;41.30;;;;;;5033012;28;20044;-74
2023/06/13 08:54:08;;;;;;;6.38;2.33;;;25.60;41.00;;;;;;5016430;28;20038;-74
2023/06/13 08:56:37;;;;;;;8.02;2.63;;;25.80;41.60;;;;;;5032989;28;20037;-74
2023/06/13 08:59:17;;;;;;;4.20;2.42;;;26.00;41.80;;;;;;5032865;28;20099;-74
2023/06/13 09:01:44;;;;;;;7.22;2.28;;;26.00;41.10;;;;;;5032844;28;20041;-74
2023/06/13 09:04:11;;;;;;;4.85;2.63;;;26.20;40.70;;;;;;5016501;28;20124;-74
2023/06/13 09:06:37;;;;;;;4.20;2.30;;;26.20;40.50;;;;;;5032758;28;20048;-74
2023/06/13 09:09:06;;;;;;;6.72;3.10;;;26.30;40.30;;;;;;5032618;28;20571;-74
2023/06/13 09:11:36;;;;;;;4.97;2.45;;;26.40;39.90;;;;;;5033009;28;20055;-74
2023/06/13 09:14:06;;;;;;;5.00;2.63;;;26.40;39.50;;;;;;5032483;28;20050;-74
2023/06/13 09:16:32;;;;;;;6.18;2.70;;;26.50;39.00;;;;;;5032636;28;20079;-74
2023/06/13 09:18:59;;;;;;;5.40;2.17;;;26.60;39.90;;;;;;5032555;28;20132;-74
2023/06/13 09:21:26;;;;;;;4.35;2.80;;;26.60;39.80;;;;;;5032794;28;20095;-74
2023/06/13 09:23:55;;;;;;;7.07;2.35;;;26.80;39.40;;;;;;5032712;28;20060;-74
2023/06/13 09:26:21;;;;;;;5.72;2.42;;;26.90;39.50;;;;;;5031891;28;20041;-74
2023/06/13 09:28:48;;;;;;;6.57;2.67;;;26.90;38.60;;;;;;5032309;28;20052;-74
2023/06/13 09:31:14;;;;;;;4.72;2.42;;;27.00;38.80;;;;;;5032311;28;20044;-74
2023/06/13 09:33:43;;;;;;;4.13;2.30;;;27.10;39.10;;;;;;5015849;28;20037;-74
2023/06/13 09:36:09;;;;;;;5.75;2.50;;;27.20;38.60;;;;;;5032268;28;20064;-74
2023/06/13 09:38:42;;;;;;;7.25;2.60;;;27.30;38.70;;;;;;5032456;28;20116;-74
2023/06/13 09:41:11;;;;;;;6.63;2.58;;;27.40;38.80;;;;;;5015724;28;20095;-74
2023/06/13 09:43:40;;;;;;;5.13;2.70;;;27.50;38.60;;;;;;5032123;28;20502;-74
2023/06/13 09:46:10;;;;;;;6.43;2.35;;;27.60;38.00;;;;;;5032034;28;20120;-74
2023/06/13 09:48:35;;;;;;;5.45;2.30;;;27.70;37.50;;;;;;5031989;28;20044;-74
2023/06/13 09:51:03;;;;;;;9.05;3.50;;;27.80;38.10;;;;;;5015570;28;20037;-74
2023/06/13 09:53:30;;;;;;;9.68;2.40;;;27.90;38.40;;;;;;5032016;28;20042;-74
2023/06/13 09:55:56;;;;;;;6.10;2.67;;;27.90;38.20;;;;;;5015629;28;20045;-74
2023/06/13 09:58:21;;;;;;;5.72;2.55;;;27.90;38.00;;;;;;5031959;28;20520;-74
2023/06/13 10:00:48;;;;;;;5.70;2.60;;;28.00;37.30;;;;;;5032203;28;20045;-74
2023/06/13 10:03:16;;;;;;;5.75;2.05;;;28.20;37.20;;;;;;5031907;28;20049;-74
2023/06/13 10:05:42;;;;;;;6.55;2.45;;;28.40;38.30;;;;;;5031806;28;20120;-74
2023/06/13 10:08:08;;;;;;;6.60;2.50;;;28.50;37.60;;;;;;5031838;28;20052;-74
2023/06/13 10:10:34;;;;;;;5.20;2.45;;;28.60;38.20;;;;;;5031781;28;20045;-74
2023/06/13 10:13:02;;;;;;;5.93;2.28;;;28.70;37.50;;;;;;5031785;28;20120;-74
2023/06/13 10:15:39;;;;;;;5.32;2.70;;;28.80;37.60;;;;;;5031737;28;20034;-74
2023/06/13 10:18:10;;;;;;;4.15;2.55;;;28.90;37.90;;;;;;5015350;28;20095;-74
2023/06/13 10:20:38;;;;;;;5.60;3.10;;;28.90;37.40;;;;;;5031778;28;20048;-75
2023/06/13 10:23:05;;;;;;;5.50;2.72;;;29.10;37.60;;;;;;5031980;28;20136;-75
2023/06/13 10:25:33;;;;;;;4.80;2.67;;;29.30;37.40;;;;;;5031910;28;20042;-75
2023/06/13 10:28:05;;;;;;;4.07;2.22;;;29.40;36.70;;;;;;5031692;28;20091;-75
2023/06/13 10:30:53;;;;;;;6.57;2.42;;;29.50;36.30;;;;;;5031644;28;20052;-75
2023/06/13 10:34:00;;;;;;;3.42;2.33;;;29.60;37.00;;;;;;5031915;28;20033;-75
2023/06/13 10:36:47;;;;;;;5.80;2.50;;;29.60;36.10;;;;;;5015107;28;20045;-75
2023/06/13 10:39:36;;;;;;;6.43;2.83;;;29.70;37.20;;;;;;5019285;28;20037;-75
2023/06/13 10:42:07;;;;;;;5.70;2.60;;;29.60;37.70;;;;;;5035803;28;20052;-75
2023/06/13 10:45:00;;;;;;;9.80;2.80;;;29.70;36.70;;;;;;5019202;28;20509;-75
2023/06/13 10:47:29;;;;;;;5.88;3.10;;;29.80;36.90;;;;;;5026274;28;20049;-75
2023/06/13 10:49:54;;;;;;;8.45;2.53;;;29.90;37.00;;;;;;5035269;28;20112;-75
2023/06/13 10:52:22;;;;;;;5.68;2.38;;;30.00;36.50;;;;;;5035564;28;20125;-75
2023/06/13 10:54:58;;;;;;;7.55;2.72;;;30.10;37.00;;;;;;5035080;28;20485;-75
2023/06/13 10:57:50;;;;;;;5.10;2.55;;;30.10;36.50;;;;;;5035270;28;20172;-75
2023/06/13 11:00:33;;;;;;;7.47;2.87;;;30.20;37.30;;;;;;5035163;28;20052;-75
2023/06/13 11:03:12;;;;;;;5.30;2.88;;;30.30;36.00;;;;;;5035110;28;20080;-75
2023/06/13 11:05:44;;;;;;;6.03;2.53;;;30.30;36.80;;;;;;5035293;28;20124;-75
2023/06/13 11:08:28;;;;;;;7.65;2.65;;;30.40;35.60;;;;;;5018484;28;20045;-75
2023/06/13 11:10:55;;;;;;;8.13;2.85;;;30.60;36.20;;;;;;5034963;28;20459;-75
2023/06/13 11:13:23;;;;;;;5.10;2.50;;;30.80;37.30;;;;;;5018448;28;20045;-75
2023/06/13 11:15:52;;;;;;;8.85;2.67;;;30.90;36.70;;;;;;5034798;28;20048;-75
2023/06/13 11:18:21;;;;;;;9.23;2.90;;;31.00;36.00;;;;;;5034781;28;20067;-75
2023/06/13 11:20:58;;;;;;;3.67;2.72;;;31.00;35.00;;;;;;5034755;28;20041;-75
2023/06/13 11:23:33;;;;;;;5.93;3.20;;;31.10;35.20;;;;;;5034754;28;20041;-75
2023/06/13 11:25:58;;;;;;;7.85;2.80;;;31.10;36.50;;;;;;5018364;28;20064;-75
2023/06/13 11:28:24;;;;;;;7.85;2.65;;;31.10;36.40;;;;;;5034600;28;20497;-75
2023/06/13 11:30:52;;;;;;;3.92;2.70;;;31.10;36.00;;;;;;5034509;28;20045;-75
2023/06/13 11:33:19;;;;;;;6.45;2.80;;;31.20;35.40;;;;;;5034809;28;20048;-75
2023/06/13 11:35:56;;;;;;;7.53;2.78;;;31.20;35.10;;;;;;5017907;28;20494;-75
2023/06/13 11:38:28;;;;;;;7.75;2.78;;;31.20;34.60;;;;;;5034446;28;20460;-75
2023/06/13 11:40:56;;;;;;;;;;;31.20;35.10;;;;;;5019221;28;20048;-75
2023/06/13 11:43:33;;;;;;;7.75;2.80;;;31.20;34.90;;;;;;5034612;28;19966;-75
2023/06/13 11:46:00;;;;;;;7.22;2.78;;;31.20;34.70;;;;;;5034266;28;20042;-75
2023/06/13 11:48:25;;;;;;;4.85;2.80;;;31.40;34.40;;;;;;5033838;28;20413;-75
2023/06/13 11:50:51;;;;;;;6.32;2.85;;;31.40;34.50;;;;;;5034146;28;20046;-75
2023/06/13 11:53:18;;;;;;;6.05;3.00;;;31.50;33.80;;;;;;5034158;28;20041;-75
2023/06/13 11:55:45;;;;;;;6.63;2.70;;;31.50;34.60;;;;;;5033868;28;20057;-75
2023/06/13 11:58:10;;;;;;;3.88;2.35;;;31.60;34.90;;;;;;5034054;28;20045;-75
2023/06/13 12:00:57;;;;;;;6.63;2.80;;;31.70;35.10;;;;;;5034003;28;20067;-75
2023/06/13 12:03:23;;;;;;;6.65;2.55;;;31.90;34.30;;;;;;5034240;28;20520;-75
2023/06/13 12:05:50;;;;;;;4.97;2.35;;;31.90;34.20;;;;;;5033868;28;20054;-75
2023/06/13 12:08:18;;;;;;;3.78;2.42;;;32.00;34.90;;;;;;5033868;28;20041;-75
2023/06/13 12:10:47;;;;;;;7.60;2.80;;;32.10;34.80;;;;;;5033766;28;20045;-75
2023/06/13 12:13:17;;;;;;;4.82;2.83;;;32.30;34.90;;;;;;5033770;28;20041;-75
2023/06/13 12:15:43;;;;;;;7.05;2.60;;;32.30;34.40;;;;;;5033705;28;20522;-75
2023/06/13 12:18:09;;;;;;;7.57;2.28;;;32.20;34.70;;;;;;5033950;28;20037;-75
2023/06/13 12:20:51;;;;;;;7.45;2.38;;;32.20;35.50;;;;;;5033693;28;20416;-75
2023/06/13 12:23:17;;;;;;;7.03;2.35;;;32.20;35.90;;;;;;5033609;28;20583;-75
2023/06/13 12:25:45;;;;;;;4.40;2.30;;;32.20;35.40;;;;;;5033524;28;20081;-75
2023/06/13 12:28:15;;;;;;;6.40;2.75;;;32.20;35.40;;;;;;5017031;28;20053;-75
2023/06/13 12:30:42;;;;;;;8.25;2.70;;;32.10;35.50;;;;;;5033443;28;20077;-75
2023/06/13 12:33:14;;;;;;;3.28;2.50;;;32.10;35.70;;;;;;5033413;28;20045;-75
2023/06/13 12:35:48;;;;;;;12.30;2.70;;;32.10;35.90;;;;;;5033352;28;20041;-75
2023/06/13 12:38:14;;;;;;;5.07;2.38;;;32.10;36.00;;;;;;5033377;28;20045;-75
2023/06/13 12:40:40;;;;;;;4.75;2.38;;;32.10;34.80;;;;;;5033222;28;20044;-75
2023/06/13 12:43:05;;;;;;;4.53;2.42;;;32.00;34.10;;;;;;5033142;28;20045;-75
2023/06/13 12:45:31;;;;;;;5.28;2.67;;;32.00;34.80;;;;;;5033037;28;20037;-75
2023/06/13 12:47:58;;;;;;;6.35;2.67;;;32.00;35.20;;;;;;5016667;28;20038;-75
2023/06/13 12:50:25;;;;;;;5.80;2.55;;;32.10;35.50;;;;;;5032953;28;20410;-75